sensor_id;sensor_type;location;lat;lon;timestamp;pressure;altitude;pressure_sealevel;temperature;humidity
4085;BME280;2057;50.858;6.572;2023-06-19T00:00:49;99669.50;;;21.32;85.90
4085;BME280;2057;50.858;6.572;2023-06-19T00:03:14;99659.00;;;21.49;85.39
4085;BME280;2057;50.858;6.572;2023-06-19T00:05:39;99664.81;;;21.73;84.00
4085;BME280;2057;50.858;6.572;2023-06-19T00:08:05;99663.13;;;21.72;83.51
4085;BME280;2057;50.858;6.572;2023-06-19T00:10:31;99671.78;;;21.68;83.70
4085;BME280;2057;50.858;6.572;2023-06-19T00:12:57;99680.44;;;21.57;83.53
4085;BME280;2057;50.858;6.572;2023-06-19T00:15:22;99686.88;;;21.10;86.07
4085;BME280;2057;50.858;6.572;2023-06-19T00:17:48;99684.28;;;21.10;87.53
4085;BME280;2057;50.858;6.572;2023-06-19T00:20:13;99684.25;;;21.13;87.20
4085;BME280;2057;50.858;6.572;2023-06-19T00:22:39;99677.94;;;21.48;84.80
4085;BME280;2057;50.858;6.572;2023-06-19T00:25:04;99678.88;;;21.41;84.70
4085;BME280;2057;50.858;6.572;2023-06-19T00:27:29;99688.50;;;21.23;85.92
4085;BME280;2057;50.858;6.572;2023-06-19T00:29:55;99685.09;;;21.16;86.54
4085;BME280;2057;50.858;6.572;2023-06-19T00:32:26;99677.19;;;21.38;85.63
4085;BME280;2057;50.858;6.572;2023-06-19T00:34:51;99690.03;;;21.47;85.15
4085;BME280;2057;50.858;6.572;2023-06-19T00:37:17;99689.19;;;21.42;84.62
4085;BME280;2057;50.858;6.572;2023-06-19T00:39:42;99699.59;;;21.35;85.62
4085;BME280;2057;50.858;6.572;2023-06-19T00:42:07;99695.19;;;21.47;85.07
4085;BME280;2057;50.858;6.572;2023-06-19T00:44:33;99691.69;;;21.58;84.43
4085;BME280;2057;50.858;6.572;2023-06-19T00:47:00;99695.13;;;21.54;84.90
4085;BME280;2057;50.858;6.572;2023-06-19T00:49:28;99693.38;;;21.59;83.58
4085;BME280;2057;50.858;6.572;2023-06-19T00:51:53;99695.19;;;21.47;84.35
4085;BME280;2057;50.858;6.572;2023-06-19T00:54:19;99694.44;;;21.31;84.81
4085;BME280;2057;50.858;6.572;2023-06-19T00:56:45;99698.63;;;21.46;84.52
4085;BME280;2057;50.858;6.572;2023-06-19T00:59:18;99700.31;;;21.49;83.99
4085;BME280;2057;50.858;6.572;2023-06-19T01:01:44;99698.56;;;21.53;83.76
4085;BME280;2057;50.858;6.572;2023-06-19T01:04:10;99702.91;;;21.46;84.10
4085;BME280;2057;50.858;6.572;2023-06-19T01:06:54;99702.91;;;21.49;84.60
4085;BME280;2057;50.858;6.572;2023-06-19T01:09:26;99708.94;;;21.48;84.08
4085;BME280;2057;50.858;6.572;2023-06-19T01:11:58;99699.47;;;21.50;84.85
4085;BME280;2057;50.858;6.572;2023-06-19T01:14:30;99701.16;;;21.54;84.46
4085;BME280;2057;50.858;6.572;2023-06-19T01:16:58;99708.09;;;21.46;84.05
4085;BME280;2057;50.858;6.572;2023-06-19T01:19:24;99705.56;;;21.41;84.92
4085;BME280;2057;50.858;6.572;2023-06-19T01:21:50;99708.22;;;21.34;85.19
4085;BME280;2057;50.858;6.572;2023-06-19T01:24:16;99709.09;;;21.29;84.69
4085;BME280;2057;50.858;6.572;2023-06-19T01:26:42;99709.97;;;21.30;84.79
4085;BME280;2057;50.858;6.572;2023-06-19T01:29:11;99705.69;;;21.27;84.63
4085;BME280;2057;50.858;6.572;2023-06-19T01:31:41;99712.66;;;21.11;84.75
4085;BME280;2057;50.858;6.572;2023-06-19T01:34:08;99715.38;;;20.90;86.94
4085;BME280;2057;50.858;6.572;2023-06-19T01:36:35;99716.19;;;20.99;86.33
4085;BME280;2057;50.858;6.572;2023-06-19T01:39:01;99711.16;;;20.81;88.10
4085;BME280;2057;50.858;6.572;2023-06-19T01:41:27;99717.13;;;20.88;87.68
4085;BME280;2057;50.858;6.572;2023-06-19T01:43:53;99716.22;;;20.98;87.17
4085;BME280;2057;50.858;6.572;2023-06-19T01:46:19;99723.91;;;21.03;86.90
4085;BME280;2057;50.858;6.572;2023-06-19T01:48:44;99721.38;;;20.98;86.94
4085;BME280;2057;50.858;6.572;2023-06-19T01:51:10;99715.34;;;21.00;86.00
4085;BME280;2057;50.858;6.572;2023-06-19T01:53:36;99720.50;;;20.94;84.53
4085;BME280;2057;50.858;6.572;2023-06-19T01:56:01;99725.78;;;20.80;84.73
4085;BME280;2057;50.858;6.572;2023-06-19T01:58:27;99723.22;;;20.74;84.37
4085;BME280;2057;50.858;6.572;2023-06-19T02:00:52;99729.28;;;20.61;84.60
4085;BME280;2057;50.858;6.572;2023-06-19T02:03:18;99731.78;;;20.78;83.02
4085;BME280;2057;50.858;6.572;2023-06-19T02:05:43;99740.44;;;20.74;82.59
4085;BME280;2057;50.858;6.572;2023-06-19T02:08:09;99730.97;;;20.60;83.85
4085;BME280;2057;50.858;6.572;2023-06-19T02:10:34;99731.03;;;20.51;85.47
4085;BME280;2057;50.858;6.572;2023-06-19T02:12:59;99738.78;;;20.48;84.75
4085;BME280;2057;50.858;6.572;2023-06-19T02:15:25;99746.47;;;20.60;84.07
4085;BME280;2057;50.858;6.572;2023-06-19T02:17:50;99749.03;;;20.63;84.58
4085;BME280;2057;50.858;6.572;2023-06-19T02:20:23;99751.59;;;20.65;83.69
4085;BME280;2057;50.858;6.572;2023-06-19T02:22:52;99748.31;;;20.30;84.82
4085;BME280;2057;50.858;6.572;2023-06-19T02:25:17;99754.31;;;20.21;84.17
4085;BME280;2057;50.858;6.572;2023-06-19T02:27:43;99758.63;;;20.26;84.48
4085;BME280;2057;50.858;6.572;2023-06-19T02:30:09;99763.78;;;20.24;83.96
4085;BME280;2057;50.858;6.572;2023-06-19T02:32:34;99770.69;;;20.17;83.63
4085;BME280;2057;50.858;6.572;2023-06-19T02:34:59;99774.13;;;20.05;84.44
4085;BME280;2057;50.858;6.572;2023-06-19T02:37:25;99775.03;;;19.89;86.04
4085;BME280;2057;50.858;6.572;2023-06-19T02:39:50;99785.28;;;19.66;86.41
4085;BME280;2057;50.858;6.572;2023-06-19T02:42:16;99789.56;;;19.53;87.21
4085;BME280;2057;50.858;6.572;2023-06-19T02:44:41;99789.56;;;19.56;86.01
4085;BME280;2057;50.858;6.572;2023-06-19T02:47:08;99785.28;;;19.81;84.93
4085;BME280;2057;50.858;6.572;2023-06-19T02:49:33;99787.88;;;20.14;82.87
4085;BME280;2057;50.858;6.572;2023-06-19T02:51:59;99788.69;;;20.27;81.97
4085;BME280;2057;50.858;6.572;2023-06-19T02:54:24;99791.28;;;20.27;81.64
4085;BME280;2057;50.858;6.572;2023-06-19T02:56:49;99795.56;;;20.26;81.50
4085;BME280;2057;50.858;6.572;2023-06-19T02:59:14;99793.81;;;20.34;79.63
4085;BME280;2057;50.858;6.572;2023-06-19T03:01:40;99813.59;;;20.43;78.99
4085;BME280;2057;50.858;6.572;2023-06-19T03:04:05;99808.47;;;20.32;79.60
4085;BME280;2057;50.858;6.572;2023-06-19T03:06:31;99822.19;;;20.39;79.29
4085;BME280;2057;50.858;6.572;2023-06-19T03:08:58;99820.44;;;20.38;79.63
4085;BME280;2057;50.858;6.572;2023-06-19T03:11:24;99822.22;;;20.24;81.06
4085;BME280;2057;50.858;6.572;2023-06-19T03:13:51;99829.09;;;20.23;81.76
4085;BME280;2057;50.858;6.572;2023-06-19T03:16:16;99839.41;;;20.12;83.40
4085;BME280;2057;50.858;6.572;2023-06-19T03:18:42;99841.13;;;20.15;83.78
4085;BME280;2057;50.858;6.572;2023-06-19T03:21:10;99840.28;;;20.02;85.99
4085;BME280;2057;50.858;6.572;2023-06-19T03:23:35;99848.88;;;19.85;87.83
4085;BME280;2057;50.858;6.572;2023-06-19T03:26:01;99843.72;;;19.88;88.04
4085;BME280;2057;50.858;6.572;2023-06-19T03:28:27;99839.38;;;19.72;89.60
4085;BME280;2057;50.858;6.572;2023-06-19T03:30:53;99843.66;;;19.65;90.34
4085;BME280;2057;50.858;6.572;2023-06-19T03:33:18;99845.38;;;19.58;91.96
4085;BME280;2057;50.858;6.572;2023-06-19T03:35:44;99841.94;;;19.46;93.33
4085;BME280;2057;50.858;6.572;2023-06-19T03:38:09;99851.34;;;19.43;94.09
4085;BME280;2057;50.858;6.572;2023-06-19T03:40:34;99857.38;;;19.46;94.50
4085;BME280;2057;50.858;6.572;2023-06-19T03:43:00;99862.47;;;19.33;95.60
4085;BME280;2057;50.858;6.572;2023-06-19T03:45:25;99876.19;;;19.27;96.55
4085;BME280;2057;50.858;6.572;2023-06-19T03:47:50;99865.03;;;19.30;97.10
4085;BME280;2057;50.858;6.572;2023-06-19T03:50:16;99871.91;;;19.23;97.45
4085;BME280;2057;50.858;6.572;2023-06-19T03:52:41;99878.78;;;19.24;97.82
4085;BME280;2057;50.858;6.572;2023-06-19T03:55:07;99885.59;;;19.18;98.59
4085;BME280;2057;50.858;6.572;2023-06-19T03:57:32;99893.28;;;19.08;99.28
4085;BME280;2057;50.858;6.572;2023-06-19T03:59:57;99891.53;;;19.01;100.00
4085;BME280;2057;50.858;6.572;2023-06-19T04:02:23;99891.56;;;19.06;100.00
4085;BME280;2057;50.858;6.572;2023-06-19T04:04:48;99894.97;;;18.99;100.00
4085;BME280;2057;50.858;6.572;2023-06-19T04:07:13;99895.84;;;19.02;100.00
4085;BME280;2057;50.858;6.572;2023-06-19T04:09:39;99900.97;;;19.05;100.00
4085;BME280;2057;50.858;6.572;2023-06-19T04:12:05;99906.13;;;19.05;100.00
4085;BME280;2057;50.858;6.572;2023-06-19T04:14:30;99908.69;;;19.02;100.00
4085;BME280;2057;50.858;6.572;2023-06-19T04:16:55;99921.56;;;19.05;100.00
4085;BME280;2057;50.858;6.572;2023-06-19T04:19:21;99926.72;;;19.08;100.00
4085;BME280;2057;50.858;6.572;2023-06-19T04:21:46;99933.63;;;19.22;100.00
4085;BME280;2057;50.858;6.572;2023-06-19T04:24:11;99935.41;;;19.32;100.00
4085;BME280;2057;50.858;6.572;2023-06-19T04:26:36;99939.75;;;19.42;99.83
4085;BME280;2057;50.858;6.572;2023-06-19T04:29:02;99935.47;;;19.49;99.78
4085;BME280;2057;50.858;6.572;2023-06-19T04:31:28;99937.22;;;19.55;98.83
4085;BME280;2057;50.858;6.572;2023-06-19T04:33:55;99943.25;;;19.58;98.83
4085;BME280;2057;50.858;6.572;2023-06-19T04:36:22;99947.53;;;19.55;99.28
4085;BME280;2057;50.858;6.572;2023-06-19T04:38:48;99938.91;;;19.54;99.25
4085;BME280;2057;50.858;6.572;2023-06-19T04:41:13;99942.38;;;19.56;99.29
4085;BME280;2057;50.858;6.572;2023-06-19T04:43:39;99934.66;;;19.61;98.94
4085;BME280;2057;50.858;6.572;2023-06-19T04:46:08;99936.34;;;19.56;99.00
4085;BME280;2057;50.858;6.572;2023-06-19T04:48:33;99938.91;;;19.50;99.58
4085;BME280;2057;50.858;6.572;2023-06-19T04:51:02;99929.47;;;19.49;99.40
4085;BME280;2057;50.858;6.572;2023-06-19T04:53:27;99928.59;;;19.47;99.72
4085;BME280;2057;50.858;6.572;2023-06-19T04:55:53;99942.38;;;19.58;99.28
4085;BME280;2057;50.858;6.572;2023-06-19T04:58:20;99930.34;;;19.54;98.91
4085;BME280;2057;50.858;6.572;2023-06-19T05:00:47;99939.81;;;19.61;98.13
4085;BME280;2057;50.858;6.572;2023-06-19T05:03:17;99933.84;;;19.71;97.73
4085;BME280;2057;50.858;6.572;2023-06-19T05:05:43;99944.13;;;19.78;96.95
4085;BME280;2057;50.858;6.572;2023-06-19T05:08:09;99946.69;;;19.74;96.32
4085;BME280;2057;50.858;6.572;2023-06-19T05:10:34;99941.56;;;19.79;96.53
4085;BME280;2057;50.858;6.572;2023-06-19T05:13:00;99938.16;;;19.85;96.25
4085;BME280;2057;50.858;6.572;2023-06-19T05:15:26;99947.63;;;19.86;96.32
4085;BME280;2057;50.858;6.572;2023-06-19T05:17:52;99942.44;;;19.75;95.49
4085;BME280;2057;50.858;6.572;2023-06-19T05:20:17;99944.13;;;19.78;95.08
4085;BME280;2057;50.858;6.572;2023-06-19T05:22:43;99948.47;;;19.85;94.78
4085;BME280;2057;50.858;6.572;2023-06-19T05:25:08;99938.13;;;19.82;95.17
4085;BME280;2057;50.858;6.572;2023-06-19T05:27:34;99944.16;;;19.76;94.57
4085;BME280;2057;50.858;6.572;2023-06-19T05:29:59;99942.41;;;19.73;94.36
4085;BME280;2057;50.858;6.572;2023-06-19T05:32:24;99942.41;;;19.73;95.14
4085;BME280;2057;50.858;6.572;2023-06-19T05:34:50;99952.78;;;19.89;94.61
4085;BME280;2057;50.858;6.572;2023-06-19T05:37:16;99946.75;;;19.88;95.24
4085;BME280;2057;50.858;6.572;2023-06-19T05:39:41;99951.94;;;20.04;93.58
4085;BME280;2057;50.858;6.572;2023-06-19T05:42:07;99947.66;;;20.17;92.48
4085;BME280;2057;50.858;6.572;2023-06-19T05:44:32;99951.13;;;20.22;91.03
4085;BME280;2057;50.858;6.572;2023-06-19T05:46:58;99951.09;;;20.33;89.42
4085;BME280;2057;50.858;6.572;2023-06-19T05:49:23;99958.84;;;20.47;88.70
4085;BME280;2057;50.858;6.572;2023-06-19T05:51:48;99964.00;;;20.53;88.59
4085;BME280;2057;50.858;6.572;2023-06-19T05:54:14;99957.09;;;20.57;88.92
4085;BME280;2057;50.858;6.572;2023-06-19T05:56:39;99966.59;;;20.50;86.88
4085;BME280;2057;50.858;6.572;2023-06-19T05:59:05;99960.56;;;20.54;86.51
4085;BME280;2057;50.858;6.572;2023-06-19T06:01:30;99964.00;;;20.62;86.65
4085;BME280;2057;50.858;6.572;2023-06-19T06:03:56;99951.97;;;20.74;84.08
4085;BME280;2057;50.858;6.572;2023-06-19T06:06:24;99957.97;;;20.66;83.76
4085;BME280;2057;50.858;6.572;2023-06-19T06:08:51;99966.56;;;20.87;83.94
4085;BME280;2057;50.858;6.572;2023-06-19T06:11:16;99977.75;;;20.92;82.89
4085;BME280;2057;50.858;6.572;2023-06-19T06:13:42;99974.31;;;20.95;82.31
4085;BME280;2057;50.858;6.572;2023-06-19T06:16:07;99976.03;;;20.96;82.39
4085;BME280;2057;50.858;6.572;2023-06-19T06:18:32;99977.72;;;21.05;81.39
4085;BME280;2057;50.858;6.572;2023-06-19T06:20:58;99988.03;;;21.08;81.62
4085;BME280;2057;50.858;6.572;2023-06-19T06:23:25;99994.06;;;21.07;80.49
4085;BME280;2057;50.858;6.572;2023-06-19T06:25:50;99984.59;;;21.04;80.44
4085;BME280;2057;50.858;6.572;2023-06-19T06:28:15;99987.13;;;21.21;80.25
4085;BME280;2057;50.858;6.572;2023-06-19T06:30:41;99989.66;;;21.38;79.38
4085;BME280;2057;50.858;6.572;2023-06-19T06:33:07;99994.81;;;21.40;78.81
4085;BME280;2057;50.858;6.572;2023-06-19T06:35:32;99988.78;;;21.45;79.32
4085;BME280;2057;50.858;6.572;2023-06-19T06:37:57;100004.25;;;21.50;79.38
4085;BME280;2057;50.858;6.572;2023-06-19T06:40:23;100006.88;;;21.38;79.44
4085;BME280;2057;50.858;6.572;2023-06-19T06:42:48;100013.75;;;21.42;78.92
4085;BME280;2057;50.858;6.572;2023-06-19T06:45:14;100018.94;;;21.37;78.37
4085;BME280;2057;50.858;6.572;2023-06-19T06:47:39;100029.22;;;21.51;78.81
4085;BME280;2057;50.858;6.572;2023-06-19T06:50:06;100025.78;;;21.51;78.48
4085;BME280;2057;50.858;6.572;2023-06-19T06:52:32;100030.97;;;21.43;78.11
4085;BME280;2057;50.858;6.572;2023-06-19T06:54:57;100030.13;;;21.44;79.22
4085;BME280;2057;50.858;6.572;2023-06-19T06:57:22;100036.97;;;21.51;79.22
4085;BME280;2057;50.858;6.572;2023-06-19T06:59:48;100035.22;;;21.56;79.29
4085;BME280;2057;50.858;6.572;2023-06-19T07:02:13;100029.19;;;21.68;79.47
4085;BME280;2057;50.858;6.572;2023-06-19T07:04:38;100037.78;;;21.70;79.61
4085;BME280;2057;50.858;6.572;2023-06-19T07:07:04;100029.19;;;21.74;78.93
4085;BME280;2057;50.858;6.572;2023-06-19T07:09:31;100035.16;;;21.84;79.06
4085;BME280;2057;50.858;6.572;2023-06-19T07:11:56;100036.88;;;21.85;78.92
4085;BME280;2057;50.858;6.572;2023-06-19T07:14:22;100039.44;;;21.88;78.60
4085;BME280;2057;50.858;6.572;2023-06-19T07:16:48;100039.53;;;21.67;79.61
4085;BME280;2057;50.858;6.572;2023-06-19T07:19:13;100041.28;;;21.60;79.40
4085;BME280;2057;50.858;6.572;2023-06-19T07:21:39;100045.59;;;21.59;79.93
4085;BME280;2057;50.858;6.572;2023-06-19T07:24:05;100049.84;;;21.73;79.58
4085;BME280;2057;50.858;6.572;2023-06-19T07:26:31;100053.25;;;21.87;79.14
4085;BME280;2057;50.858;6.572;2023-06-19T07:28:57;100055.91;;;21.66;80.54
4085;BME280;2057;50.858;6.572;2023-06-19T07:31:22;100055.03;;;21.70;79.90
4085;BME280;2057;50.858;6.572;2023-06-19T07:33:47;100069.69;;;21.54;80.08
4085;BME280;2057;50.858;6.572;2023-06-19T07:36:13;100068.84;;;21.53;81.21
4085;BME280;2057;50.858;6.572;2023-06-19T07:38:42;100067.97;;;21.51;81.21
4085;BME280;2057;50.858;6.572;2023-06-19T07:41:08;100074.00;;;21.61;79.98
4085;BME280;2057;50.858;6.572;2023-06-19T07:43:35;100067.97;;;21.59;80.26
4085;BME280;2057;50.858;6.572;2023-06-19T07:46:01;100070.56;;;21.54;79.16
4085;BME280;2057;50.858;6.572;2023-06-19T07:48:26;100072.25;;;21.65;79.49
4085;BME280;2057;50.858;6.572;2023-06-19T07:50:53;100067.88;;;21.82;78.49
4085;BME280;2057;50.858;6.572;2023-06-19T07:53:18;100072.22;;;21.78;78.60
4085;BME280;2057;50.858;6.572;2023-06-19T07:55:43;100072.22;;;21.85;78.43
4085;BME280;2057;50.858;6.572;2023-06-19T07:58:09;100078.22;;;21.88;77.52
4085;BME280;2057;50.858;6.572;2023-06-19T08:00:34;100073.94;;;21.78;78.13
4085;BME280;2057;50.858;6.572;2023-06-19T08:03:02;100068.72;;;21.90;78.57
4085;BME280;2057;50.858;6.572;2023-06-19T08:05:27;100072.16;;;21.89;77.95
4085;BME280;2057;50.858;6.572;2023-06-19T08:07:53;100071.28;;;21.98;77.23
4085;BME280;2057;50.858;6.572;2023-06-19T08:10:18;100066.09;;;22.00;76.46
4085;BME280;2057;50.858;6.572;2023-06-19T08:12:44;100059.13;;;22.14;75.99
4085;BME280;2057;50.858;6.572;2023-06-19T08:15:10;100062.44;;;22.39;74.96
4085;BME280;2057;50.858;6.572;2023-06-19T08:17:36;100061.56;;;22.36;74.27
4085;BME280;2057;50.858;6.572;2023-06-19T08:20:02;100062.44;;;22.39;73.15
4085;BME280;2057;50.858;6.572;2023-06-19T08:22:30;100053.69;;;22.56;74.12
4085;BME280;2057;50.858;6.572;2023-06-19T08:24:55;100055.41;;;22.60;72.70
4085;BME280;2057;50.858;6.572;2023-06-19T08:27:21;100051.94;;;22.60;73.03
4085;BME280;2057;50.858;6.572;2023-06-19T08:29:46;100066.47;;;22.76;72.43
4085;BME280;2057;50.858;6.572;2023-06-19T08:32:11;100055.09;;;22.99;72.27
4085;BME280;2057;50.858;6.572;2023-06-19T08:34:37;100061.13;;;22.98;69.82
4085;BME280;2057;50.858;6.572;2023-06-19T08:37:03;100068.88;;;23.01;70.20
4085;BME280;2057;50.858;6.572;2023-06-19T08:39:29;100069.06;;;22.76;71.06
4085;BME280;2057;50.858;6.572;2023-06-19T08:41:54;100066.28;;;23.02;70.16
4085;BME280;2057;50.858;6.572;2023-06-19T08:44:19;100068.81;;;23.07;70.48
4085;BME280;2057;50.858;6.572;2023-06-19T08:46:45;100073.78;;;23.32;68.00
4085;BME280;2057;50.858;6.572;2023-06-19T08:49:10;100078.25;;;23.11;69.76
4085;BME280;2057;50.858;6.572;2023-06-19T08:51:36;100070.31;;;23.33;69.12
4085;BME280;2057;50.858;6.572;2023-06-19T08:54:03;100067.50;;;23.53;68.71
4085;BME280;2057;50.858;6.572;2023-06-19T08:56:32;100071.22;;;23.30;66.88
4085;BME280;2057;50.858;6.572;2023-06-19T08:59:14;100077.16;;;23.37;66.69
4085;BME280;2057;50.858;6.572;2023-06-19T09:01:40;100079.06;;;23.19;67.31
4085;BME280;2057;50.858;6.572;2023-06-19T09:04:14;100082.59;;;23.08;68.48
4085;BME280;2057;50.858;6.572;2023-06-19T09:06:50;100077.88;;;23.53;67.53
4085;BME280;2057;50.858;6.572;2023-06-19T09:09:20;100082.31;;;23.43;68.34
4085;BME280;2057;50.858;6.572;2023-06-19T09:16:58;100084.69;;;23.63;65.28
4085;BME280;2057;50.858;6.572;2023-06-19T09:19:23;100089.06;;;23.57;65.91
4085;BME280;2057;50.858;6.572;2023-06-19T09:21:49;100082.97;;;23.61;65.82
4085;BME280;2057;50.858;6.572;2023-06-19T09:24:15;100088.34;;;23.44;66.07
4085;BME280;2057;50.858;6.572;2023-06-19T09:26:40;100091.69;;;23.55;65.53
4085;BME280;2057;50.858;6.572;2023-06-19T09:29:10;100080.97;;;23.85;65.14
4085;BME280;2057;50.858;6.572;2023-06-19T09:31:36;100073.28;;;23.78;64.90
4085;BME280;2057;50.858;6.572;2023-06-19T09:34:02;100081.66;;;24.01;64.62
4085;BME280;2057;50.858;6.572;2023-06-19T09:36:29;100078.13;;;24.05;63.42
4085;BME280;2057;50.858;6.572;2023-06-19T09:38:56;100082.66;;;23.87;62.70
4085;BME280;2057;50.858;6.572;2023-06-19T09:41:23;100081.72;;;23.96;62.65
4085;BME280;2057;50.858;6.572;2023-06-19T09:43:49;100083.84;;;24.30;63.68
4085;BME280;2057;50.858;6.572;2023-06-19T09:46:16;100081.47;;;24.16;60.61
4085;BME280;2057;50.858;6.572;2023-06-19T09:48:45;100093.66;;;24.09;59.55
4085;BME280;2057;50.858;6.572;2023-06-19T09:51:19;100098.81;;;24.09;60.47
4085;BME280;2057;50.858;6.572;2023-06-19T09:53:46;100082.75;;;24.45;60.75
4085;BME280;2057;50.858;6.572;2023-06-19T09:56:13;100077.50;;;24.50;60.13
4085;BME280;2057;50.858;6.572;2023-06-19T09:58:42;100090.28;;;24.01;61.92
4085;BME280;2057;50.858;6.572;2023-06-19T10:01:09;100089.00;;;24.32;61.17
4085;BME280;2057;50.858;6.572;2023-06-19T10:03:36;100091.44;;;24.42;59.68
4085;BME280;2057;50.858;6.572;2023-06-19T10:06:02;100087.06;;;24.48;59.40
4085;BME280;2057;50.858;6.572;2023-06-19T10:08:39;100092.56;;;24.27;58.79
4085;BME280;2057;50.858;6.572;2023-06-19T10:11:05;100090.47;;;24.50;57.88
4085;BME280;2057;50.858;6.572;2023-06-19T10:13:33;100085.03;;;24.67;56.25
4085;BME280;2057;50.858;6.572;2023-06-19T10:15:59;100091.53;;;24.96;57.58
4085;BME280;2057;50.858;6.572;2023-06-19T10:18:25;100089.09;;;24.85;58.59
4085;BME280;2057;50.858;6.572;2023-06-19T10:20:53;100082.03;;;24.93;58.31
4085;BME280;2057;50.858;6.572;2023-06-19T10:23:20;100092.25;;;25.04;56.13
4085;BME280;2057;50.858;6.572;2023-06-19T10:25:48;100076.75;;;24.99;56.11
4085;BME280;2057;50.858;6.572;2023-06-19T10:28:22;100088.63;;;25.13;57.33
4085;BME280;2057;50.858;6.572;2023-06-19T10:30:54;100082.09;;;25.38;57.15
4085;BME280;2057;50.858;6.572;2023-06-19T10:33:21;100086.63;;;25.74;53.96
4085;BME280;2057;50.858;6.572;2023-06-19T10:35:46;100080.63;;;25.25;53.96
4085;BME280;2057;50.858;6.572;2023-06-19T10:38:15;100081.00;;;25.52;54.36
4085;BME280;2057;50.858;6.572;2023-06-19T10:40:40;100079.47;;;25.42;55.95
4085;BME280;2057;50.858;6.572;2023-06-19T10:43:06;100076.59;;;25.09;55.37
4085;BME280;2057;50.858;6.572;2023-06-19T10:45:32;100079.72;;;25.26;55.68
4085;BME280;2057;50.858;6.572;2023-06-19T10:48:00;100082.16;;;25.34;56.28
4085;BME280;2057;50.858;6.572;2023-06-19T10:50:28;100069.25;;;25.29;55.25
4085;BME280;2057;50.858;6.572;2023-06-19T10:52:54;100072.19;;;25.12;54.35
4085;BME280;2057;50.858;6.572;2023-06-19T10:55:20;100067.13;;;25.51;53.66
4085;BME280;2057;50.858;6.572;2023-06-19T10:57:47;100068.53;;;25.70;54.13
4085;BME280;2057;50.858;6.572;2023-06-19T11:00:26;100064.06;;;25.31;55.59
4085;BME280;2057;50.858;6.572;2023-06-19T11:02:52;100066.56;;;25.34;54.65
4085;BME280;2057;50.858;6.572;2023-06-19T11:05:22;100060.44;;;25.40;55.51
4085;BME280;2057;50.858;6.572;2023-06-19T11:07:56;100064.22;;;25.67;55.19
4085;BME280;2057;50.858;6.572;2023-06-19T11:10:24;100056.38;;;25.70;54.23
4085;BME280;2057;50.858;6.572;2023-06-19T11:12:53;100067.13;;;25.95;53.17
4085;BME280;2057;50.858;6.572;2023-06-19T11:15:34;100054.38;;;25.83;51.98
4085;BME280;2057;50.858;6.572;2023-06-19T11:18:01;100050.00;;;26.24;52.30
4085;BME280;2057;50.858;6.572;2023-06-19T11:20:27;100048.38;;;26.20;52.28
4085;BME280;2057;50.858;6.572;2023-06-19T11:22:59;100039.81;;;26.15;51.57
4085;BME280;2057;50.858;6.572;2023-06-19T11:25:41;100048.53;;;26.50;50.55
4085;BME280;2057;50.858;6.572;2023-06-19T11:28:14;100040.72;;;26.50;50.48
4085;BME280;2057;50.858;6.572;2023-06-19T11:30:40;100035.28;;;26.59;51.05
4085;BME280;2057;50.858;6.572;2023-06-19T11:33:16;100049.59;;;26.43;52.20
4085;BME280;2057;50.858;6.572;2023-06-19T11:35:50;100035.19;;;26.28;52.17
4085;BME280;2057;50.858;6.572;2023-06-19T11:38:24;100036.53;;;26.82;50.19
4085;BME280;2057;50.858;6.572;2023-06-19T11:40:50;100044.00;;;26.58;50.74
4085;BME280;2057;50.858;6.572;2023-06-19T11:43:31;100050.31;;;26.50;49.92
4085;BME280;2057;50.858;6.572;2023-06-19T11:46:05;100049.56;;;26.44;49.98
4085;BME280;2057;50.858;6.572;2023-06-19T11:48:30;100040.38;;;26.66;49.43
4085;BME280;2057;50.858;6.572;2023-06-19T11:50:56;100041.06;;;26.72;50.19
4085;BME280;2057;50.858;6.572;2023-06-19T11:53:23;100043.28;;;26.89;49.04
4085;BME280;2057;50.858;6.572;2023-06-19T11:55:52;100037.91;;;26.96;48.29
4085;BME280;2057;50.858;6.572;2023-06-19T11:58:18;100032.88;;;27.21;48.65
4085;BME280;2057;50.858;6.572;2023-06-19T12:00:48;100038.22;;;27.16;49.40
4085;BME280;2057;50.858;6.572;2023-06-19T12:03:14;100031.94;;;27.23;48.41
4085;BME280;2057;50.858;6.572;2023-06-19T12:05:40;100021.13;;;27.37;47.07
4085;BME280;2057;50.858;6.572;2023-06-19T12:08:05;100019.41;;;27.68;48.97
4085;BME280;2057;50.858;6.572;2023-06-19T12:10:32;100020.63;;;28.14;47.75
4085;BME280;2057;50.858;6.572;2023-06-19T12:12:58;100016.03;;;28.49;47.19
4085;BME280;2057;50.858;6.572;2023-06-19T12:15:24;100025.47;;;28.27;47.25
4085;BME280;2057;50.858;6.572;2023-06-19T12:17:51;100019.19;;;28.32;46.30
4085;BME280;2057;50.858;6.572;2023-06-19T12:20:17;100031.63;;;27.96;46.74
4085;BME280;2057;50.858;6.572;2023-06-19T12:22:42;100023.22;;;28.14;46.99
4085;BME280;2057;50.858;6.572;2023-06-19T12:25:08;100024.22;;;28.65;46.02
4085;BME280;2057;50.858;6.572;2023-06-19T12:27:34;100024.38;;;28.34;46.16
4085;BME280;2057;50.858;6.572;2023-06-19T12:29:59;100030.28;;;28.12;47.65
4085;BME280;2057;50.858;6.572;2023-06-19T12:32:24;100034.31;;;27.93;47.48
4085;BME280;2057;50.858;6.572;2023-06-19T12:34:50;100025.50;;;27.97;46.75
4085;BME280;2057;50.858;6.572;2023-06-19T12:37:19;100024.22;;;27.82;47.43
4085;BME280;2057;50.858;6.572;2023-06-19T12:39:46;100031.91;;;27.86;47.16
4085;BME280;2057;50.858;6.572;2023-06-19T12:42:11;100024.78;;;27.63;46.83
4085;BME280;2057;50.858;6.572;2023-06-19T12:44:40;100023.63;;;27.72;48.64
4085;BME280;2057;50.858;6.572;2023-06-19T12:47:06;100024.25;;;28.10;46.35
4085;BME280;2057;50.858;6.572;2023-06-19T12:49:32;100018.94;;;28.13;46.12
4085;BME280;2057;50.858;6.572;2023-06-19T12:51:58;100021.75;;;28.34;46.08
4085;BME280;2057;50.858;6.572;2023-06-19T12:54:23;100011.00;;;28.16;45.57
4085;BME280;2057;50.858;6.572;2023-06-19T12:56:49;100015.53;;;28.11;46.09
4085;BME280;2057;50.858;6.572;2023-06-19T12:59:15;100013.38;;;28.24;45.70
4085;BME280;2057;50.858;6.572;2023-06-19T13:01:41;100015.31;;;28.44;44.97
4085;BME280;2057;50.858;6.572;2023-06-19T13:04:06;100017.63;;;28.27;44.82
4085;BME280;2057;50.858;6.572;2023-06-19T13:06:31;100017.84;;;28.47;45.14
4085;BME280;2057;50.858;6.572;2023-06-19T13:08:57;100013.09;;;28.59;45.05
4085;BME280;2057;50.858;6.572;2023-06-19T13:11:23;99997.94;;;28.43;45.93
4085;BME280;2057;50.858;6.572;2023-06-19T13:13:48;100008.03;;;28.27;44.93
4085;BME280;2057;50.858;6.572;2023-06-19T13:16:13;99998.84;;;28.15;45.55